deformed-offering

Nearby METAR Reports

 

KSJC - San Jose, California, USA
Distance from station: NE 9mi, 14km
Updated: Tue, 27-Jul-2021 9:53pm PDT
Few Clouds
Few Clouds
 Wind from WNW
Wind: WNW 6 mph , 9 km/h
Temperature: 68°F , 20°C
Dew Point: 54°F , 12°C
Humidity: 60%
Barometer: 30.01 inHg , 1016.3 hPa
Clouds: Few Clouds
Visibility: 10 miles , 16 km
Cloud details: Few Clouds 10000 ft
2021/07/28 04:53 KSJC 280453Z 29005KT 10SM FEW100 20/12 A3001 RMK AO2 SLP160 T02000117
KRHV - San Jose/Reid, California, USA
Distance from station: ENE 12mi, 19km
Updated: Tue, 27-Jul-2021 9:57pm PDT
Clear
Clear
 Wind from WNW
Wind: WNW 7 mph , 11 km/h
Temperature: 72°F , 22°C
Dew Point: 52°F , 11°C
Humidity: 50%
Barometer: 30.01 inHg , 1016.3 hPa
Clouds: Clear
Visibility: 10 miles , 16 km
2021/07/28 04:57 KRHV 280457Z 29006KT 10SM SKC 22/11 A3001 RMK LAST
 
KPAO - Palo Alto, California, USA
Distance from station: NNW 14mi, 23km
Updated: Tue, 27-Jul-2021 8:47pm PDT
NOT Current
Clear
Clear
 Wind from N
Wind: N 15 mph , 24 km/h
Temperature: 66°F , 19°C
Dew Point: 57°F , 14°C
Humidity: 73%
Barometer: 29.98 inHg , 1015.2 hPa
Clouds: Clear
Visibility: 10 miles , 16 km
2021/07/28 03:47 KPAO 280347Z 35013KT 10SM SKC 19/14 A2998 RMK LAST
KSQL - San Carlos Airpo, California, USA
Distance from station: NW 21mi, 34km
Updated: Tue, 27-Jul-2021 9:55pm PDT
Clear
Clear
 Wind from calm
Wind: Calm
Temperature: 66°F , 19°C
Dew Point: 55°F , 13°C
Humidity: 68%
Barometer: 30.01 inHg , 1016.3 hPa
Clouds: Clear
Visibility: 10 miles , 16 km
2021/07/28 04:55 KSQL 280455Z AUTO 00000KT 10SM CLR 19/13 A3001 RMK AO2
 
KWVI - Watsonville, California, USA
Distance from station: SSE 27mi, 44km
Updated: Tue, 27-Jul-2021 9:53pm PDT
Overcast
Overcast
 Wind from calm
Wind: Calm
Temperature: 59°F , 15°C
Dew Point: 55°F , 13°C
Humidity: 88%
Barometer: 30.04 inHg , 1017.3 hPa
Clouds: Overcast
Visibility: 10 miles , 16 km
Cloud details: Overcast 600 ft
2021/07/28 04:53 KWVI 280453Z AUTO 00000KT 10SM OVC006 15/13 A3004 RMK AO2 SLP172 T01500133
KHWD - Hayward, California, USA
Distance from station: N 28mi, 44km
Updated: Tue, 27-Jul-2021 9:54pm PDT
Clear
Clear
 Wind from NW
Wind: NW 6 mph , 9 km/h
Temperature: 63°F , 17°C
Dew Point: 55°F , 13°C
Humidity: 77%
Barometer: 30.00 inHg , 1015.9 hPa
Clouds: Clear
Visibility: 10 miles , 16 km
2021/07/28 04:54 KHWD 280454Z 32005KT 10SM CLR 17/13 A3000 RMK AO2 SLP169 T01720133
 
KSFO - San Francisco, California, USA
Distance from station: NW 30mi, 49km
Updated: Tue, 27-Jul-2021 9:56pm PDT
Few Clouds
Few Clouds
 Wind from NW
Wind: NW 14 mph , 22 km/h
Temperature: 59°F , 15°C
Dew Point: 55°F , 13°C
Humidity: 88%
Barometer: 30.00 inHg , 1015.9 hPa
Clouds: Few Clouds
Visibility: 10 miles , 16 km
Cloud details: Few Clouds 500 ft
2021/07/28 04:56 KSFO 280456Z 31012KT 10SM FEW005 15/13 A3000 RMK A02 SLP158 T01500128
KHAF - Half Moon Bay, California, USA
Distance from station: WNW 31mi, 50km
Updated: Fri, 09-Jul-2021 7:35am PDT
NOT Current
Light rain, Clear
Light rain, Clear
 
Temperature: 55°F , 13°C
Dew Point: 54°F , 12°C
Humidity: 94%
Barometer: 29.91 inHg , 1012.9 hPa
Summary: Light Rain
Clouds: Clear
Visibility: 4 miles , 6 km
2021/07/09 14:35 KHAF 091435Z AUTO 4SM -RA CLR 13/12 A2991 RMK AO2
 
KLVK - Livermore, California, USA
Distance from station: NNE 31mi, 51km
Updated: Tue, 27-Jul-2021 9:53pm PDT
Clear
Clear
 Wind from NW
Wind: NW 8 mph , 13 km/h
Temperature: 73°F , 23°C
Dew Point: 46°F , 8°C
Humidity: 38%
Barometer: 29.98 inHg , 1015.2 hPa
Clouds: Clear
Visibility: 10 miles , 16 km
2021/07/28 04:53 KLVK 280453Z 31007KT 10SM CLR 23/08 A2998 RMK AO2 SLP149 T02280083
KOAK - Oakland, California, USA
Distance from station: NNW 33mi, 53km
Updated: Tue, 27-Jul-2021 9:53pm PDT
Few Clouds
Few Clouds
 Wind from NW
Wind: NW 7 mph , 11 km/h
Temperature: 61°F , 16°C
Dew Point: 55°F , 13°C
Humidity: 83%
Barometer: 30.01 inHg , 1016.3 hPa
Clouds: Few Clouds
Visibility: 10 miles , 16 km
Cloud details: Few Clouds 800 ft
2021/07/28 04:53 KOAK 280453Z 31006KT 10SM FEW008 16/13 A3001 RMK AO2 SLP163 T01610133
 
KCVH - Hollister Muni, California, USA
Distance from station: SE 42mi, 68km
Updated: Tue, 27-Jul-2021 9:55pm PDT
Clear
Clear
 Wind from calm
Wind: Calm
Temperature: 59°F , 15°C
Dew Point: 54°F , 12°C
Humidity: 82%
Barometer: 30.04 inHg , 1017.3 hPa
Clouds: Clear
Visibility: 10 miles , 16 km
2021/07/28 04:55 KCVH 280455Z AUTO 00000KT 10SM CLR 15/12 A3004 RMK A01
KSNS - Salinas, California, USA
Distance from station: SSE 48mi, 77km
Updated: Tue, 27-Jul-2021 9:53pm PDT
Overcast
Overcast
 Wind from NW
Wind: NW 8 mph , 13 km/h
Temperature: 61°F , 16°C
Dew Point: 55°F , 13°C
Humidity: 83%
Barometer: 30.03 inHg , 1016.9 hPa
Clouds: Overcast
Visibility: 10 miles , 16 km
Cloud details: Overcast 800 ft
2021/07/28 04:53 KSNS 280453Z AUTO 32007KT 10SM OVC008 16/13 A3003 RMK AO2 SLP178 T01560128 $
 
KMRY - Monterey, California, USA
Distance from station: SSE 49mi, 78km
Updated: Tue, 27-Jul-2021 9:54pm PDT
Overcast
Overcast
 Wind from N
Wind: N 5 mph , 7 km/h
Temperature: 63°F , 17°C
Dew Point: 55°F , 13°C
Humidity: 77%
Barometer: 30.05 inHg , 1017.6 hPa
Clouds: Overcast
Visibility: 10 miles , 16 km
Cloud details: Overcast 800 ft
2021/07/28 04:54 KMRY 280454Z AUTO 35004KT 10SM OVC008 17/13 A3005 RMK AO2 SLP185 T01670128
KCCR - Concord, California, USA
Distance from station: N 50mi, 81km
Updated: Tue, 27-Jul-2021 9:53pm PDT
Clear
Clear
 Wind from NNW
Wind: NNW 6 mph , 9 km/h
Temperature: 75°F , 24°C
Dew Point: 55°F , 13°C
Humidity: 50%
Barometer: 29.97 inHg , 1014.9 hPa
Clouds: Clear
Visibility: 10 miles , 16 km
2021/07/28 04:53 KCCR 280453Z 34005KT 10SM CLR 24/13 A2997 RMK AO2 SLP134 T02390128
deformed-offering